Terminal Aerodrome Forecast
Issued by NWS Paducah, KY

Home | Current Version | Previous Version | Text Only | Print | Product List | Glossary On
Versions: 1 2 3 4 5 6 7 8 9 10 11 12 13 14 15 16 17 18 19 20 21
000
FTUS43 KPAH 100810 AAA
TAFEVV
TAF AMD
KEVV 100810Z 1008/1106 29006KT P6SM OVC035
     FM101400 29008KT P6SM SKC
     FM110000 27004KT P6SM OVC120
     FM110200 32005KT P6SM BKN025 OVC080=

USA.gov is the U.S. government's official web portal to all federal, state and local government web resources and services.